createdAt,value
2023-04-09T00:02:02.944Z,30.52
2023-04-09T00:04:31.206Z,32.97
2023-04-09T00:06:59.272Z,30.17
2023-04-09T00:09:26.868Z,28.55
2023-04-09T00:11:55.992Z,30.88
2023-04-09T00:14:24.233Z,32.10
2023-04-09T00:16:51.791Z,34.58
2023-04-09T00:19:19.853Z,35.08
2023-04-09T00:21:47.547Z,30.65
2023-04-09T00:24:15.199Z,33.05
2023-04-09T00:26:42.906Z,31.10
2023-04-09T00:29:12.010Z,32.63
2023-04-09T00:31:39.573Z,32.55
2023-04-09T00:34:07.389Z,55.17
2023-04-09T00:36:36.345Z,84.10
2023-04-09T00:39:03.996Z,99.65
2023-04-09T00:41:34.973Z,126.72
2023-04-09T00:44:02.652Z,125.15
2023-04-09T00:46:34.990Z,42.17
2023-04-09T00:49:02.666Z,31.27
2023-04-09T00:51:30.362Z,33.70
2023-04-09T00:53:58.231Z,29.73
2023-04-09T00:56:27.176Z,30.50
2023-04-09T00:58:55.720Z,31.75
2023-04-09T01:01:23.708Z,55.10
2023-04-09T01:03:54.084Z,80.93
2023-04-09T01:06:28.300Z,32.42
2023-04-09T01:09:03.825Z,36.70
2023-04-09T01:11:42.473Z,30.02
2023-04-09T01:14:20.912Z,29.98
2023-04-09T01:16:55.880Z,29.23
2023-04-09T01:19:41.946Z,30.02
2023-04-09T01:22:25.481Z,30.48
2023-04-09T01:25:04.468Z,33.78
2023-04-09T01:27:43.959Z,47.45
2023-04-09T01:30:15.912Z,30.92
2023-04-09T01:32:44.520Z,29.38
2023-04-09T01:35:13.929Z,26.27
2023-04-09T01:37:42.274Z,29.70
2023-04-09T01:40:11.596Z,29.58
2023-04-09T01:42:41.197Z,29.92
2023-04-09T01:45:11.218Z,29.63
2023-04-09T01:47:40.840Z,33.83
2023-04-09T01:50:09.453Z,29.73
2023-04-09T01:52:37.358Z,34.22
2023-04-09T01:55:06.029Z,31.67
2023-04-09T01:57:33.710Z,31.17
2023-04-09T02:00:04.956Z,33.88
2023-04-09T02:02:42.933Z,29.65
2023-04-09T02:05:18.584Z,35.72
2023-04-09T02:07:52.892Z,35.58
2023-04-09T02:10:24.429Z,28.55
2023-04-09T02:12:53.514Z,34.03
2023-04-09T02:15:22.403Z,30.48
2023-04-09T02:17:51.194Z,34.65
2023-04-09T02:20:20.437Z,33.80
2023-04-09T02:22:48.227Z,30.88
2023-04-09T02:25:15.826Z,29.27
2023-04-09T02:27:43.618Z,29.40
2023-04-09T02:30:12.002Z,29.55
2023-04-09T02:32:39.754Z,29.73
2023-04-09T02:35:08.461Z,29.35
2023-04-09T02:37:39.456Z,32.47
2023-04-09T02:40:07.996Z,29.00
2023-04-09T02:42:35.921Z,27.90
2023-04-09T02:45:03.804Z,29.60
2023-04-09T02:47:39.024Z,27.20
2023-04-09T02:50:07.980Z,45.05
2023-04-09T02:52:35.629Z,56.20
2023-04-09T02:55:05.634Z,39.78
2023-04-09T02:57:33.755Z,35.45
2023-04-09T03:00:01.818Z,30.60
2023-04-09T03:02:29.870Z,30.30
2023-04-09T03:04:57.683Z,31.05
2023-04-09T03:07:25.275Z,32.88
2023-04-09T03:09:52.987Z,32.15
2023-04-09T03:12:22.740Z,38.40
2023-04-09T03:14:50.321Z,36.17
2023-04-09T03:17:18.215Z,36.30
2023-04-09T03:19:46.944Z,33.50
2023-04-09T03:22:14.480Z,32.75
2023-04-09T03:24:42.287Z,37.75
2023-04-09T03:27:10.307Z,33.92
2023-04-09T03:29:46.568Z,33.80
2023-04-09T03:32:15.963Z,35.00
2023-04-09T03:34:44.869Z,35.78
2023-04-09T03:37:12.474Z,35.50
2023-04-09T03:39:40.684Z,40.80
2023-04-09T03:42:12.310Z,39.33
2023-04-09T03:44:40.072Z,36.58
2023-04-09T03:47:09.222Z,55.15
2023-04-09T03:49:37.337Z,50.13
2023-04-09T03:52:06.563Z,49.40
2023-04-09T03:54:34.557Z,35.13
2023-04-09T03:57:02.306Z,60.95
2023-04-09T03:59:32.929Z,63.50
2023-04-09T04:02:10.134Z,34.42
2023-04-09T04:04:38.132Z,30.83
2023-04-09T04:07:06.403Z,33.72
2023-04-09T04:09:37.011Z,33.13
2023-04-09T04:12:04.906Z,33.80
2023-04-09T04:14:35.797Z,35.65
2023-04-09T04:17:03.406Z,33.80
2023-04-09T04:19:32.408Z,33.70
2023-04-09T04:22:00.268Z,29.10
2023-04-09T04:24:28.456Z,31.73
2023-04-09T04:26:55.974Z,30.02
2023-04-09T04:29:24.060Z,31.17
2023-04-09T04:31:52.134Z,30.25
2023-04-09T04:34:19.732Z,30.13
2023-04-09T04:36:49.225Z,26.13
2023-04-09T04:39:18.473Z,30.02
2023-04-09T04:41:46.657Z,25.02
2023-04-09T04:44:14.528Z,29.25
2023-04-09T04:46:42.162Z,25.95
2023-04-09T04:49:11.114Z,23.90
2023-04-09T04:51:38.938Z,31.02
2023-04-09T04:54:08.342Z,24.08
2023-04-09T04:56:36.006Z,23.52
2023-04-09T04:59:08.086Z,24.88
2023-04-09T05:01:35.830Z,22.92
2023-04-09T05:04:04.417Z,22.48
2023-04-09T05:06:32.312Z,24.60
2023-04-09T05:08:59.874Z,25.98
2023-04-09T05:11:31.724Z,25.95
2023-04-09T05:14:02.433Z,23.70
2023-04-09T05:16:30.740Z,24.67
2023-04-09T05:18:58.330Z,24.00
2023-04-09T05:21:26.051Z,22.20
2023-04-09T05:23:55.850Z,21.42
2023-04-09T05:26:23.988Z,21.10
2023-04-09T05:28:54.084Z,22.35
2023-04-09T05:31:25.084Z,22.05
2023-04-09T05:33:52.644Z,24.67
2023-04-09T05:36:20.880Z,25.27
2023-04-09T05:38:55.912Z,23.10
2023-04-09T05:41:24.265Z,24.63
2023-04-09T05:43:53.454Z,50.05
2023-04-09T05:46:25.535Z,22.63
2023-04-09T05:48:53.589Z,23.25
2023-04-09T05:51:21.638Z,22.10
2023-04-09T05:53:50.040Z,20.30
2023-04-09T05:56:19.067Z,20.25
2023-04-09T05:58:46.626Z,26.42
2023-04-09T06:01:17.136Z,46.13
2023-04-09T06:03:45.016Z,20.27
2023-04-09T06:06:13.203Z,17.33
2023-04-09T06:08:41.745Z,18.40
2023-04-09T06:11:09.872Z,21.73
2023-04-09T06:13:37.456Z,20.85
2023-04-09T06:16:16.330Z,22.15
2023-04-09T06:18:44.591Z,23.75
2023-04-09T06:21:12.168Z,26.15
2023-04-09T06:23:40.737Z,20.38
2023-04-09T06:26:09.085Z,20.17
2023-04-09T06:28:36.633Z,16.95
2023-04-09T06:31:04.418Z,17.92
2023-04-09T06:33:34.463Z,17.52
2023-04-09T06:36:02.032Z,20.60
2023-04-09T06:38:29.937Z,18.60
2023-04-09T06:40:57.698Z,19.75
2023-04-09T06:43:28.845Z,19.83
2023-04-09T06:45:58.397Z,18.92
2023-04-09T06:48:26.108Z,20.30
2023-04-09T06:50:55.898Z,19.60
2023-04-09T06:53:24.079Z,20.48
2023-04-09T06:55:54.444Z,19.70
2023-04-09T06:58:24.247Z,18.25
2023-04-09T07:00:52.222Z,22.15
2023-04-09T07:03:28.306Z,18.48
2023-04-09T07:05:58.648Z,16.98
2023-04-09T07:08:26.356Z,19.98
2023-04-09T07:11:02.264Z,20.10
2023-04-09T07:13:34.432Z,19.20
2023-04-09T07:16:02.116Z,20.25
2023-04-09T07:18:32.013Z,17.70
2023-04-09T07:21:03.347Z,16.08
2023-04-09T07:23:34.979Z,17.33
2023-04-09T07:26:04.534Z,18.10
2023-04-09T07:28:33.534Z,16.77
2023-04-09T07:31:01.924Z,16.33
2023-04-09T07:33:49.393Z,17.42
2023-04-09T07:36:19.305Z,13.35
2023-04-09T07:38:46.963Z,43.85
2023-04-09T07:41:17.484Z,15.47
2023-04-09T07:43:46.110Z,14.85
2023-04-09T07:46:19.056Z,17.63
2023-04-09T07:48:48.482Z,14.55
2023-04-09T07:51:20.800Z,16.85
2023-04-09T07:53:53.806Z,11.32
2023-04-09T07:56:21.749Z,13.20
2023-04-09T07:58:49.525Z,13.20
2023-04-09T08:01:19.893Z,13.00
2023-04-09T08:03:48.172Z,10.88
2023-04-09T08:06:16.076Z,12.80
2023-04-09T08:08:46.114Z,9.10
2023-04-09T08:11:16.609Z,9.45
2023-04-09T08:13:44.305Z,13.88
2023-04-09T08:16:15.555Z,16.80
2023-04-09T08:18:43.103Z,10.45
2023-04-09T08:21:11.032Z,12.57
2023-04-09T08:23:38.890Z,10.93
2023-04-09T08:26:08.977Z,11.32
2023-04-09T08:28:39.821Z,9.82
2023-04-09T08:33:37.209Z,10.77
2023-04-09T08:36:08.819Z,11.32
2023-04-09T08:38:37.085Z,13.90
2023-04-09T08:41:05.835Z,9.88
2023-04-09T08:43:53.192Z,13.65
2023-04-09T08:46:24.885Z,13.63
2023-04-09T08:48:53.410Z,10.18
2023-04-09T08:51:23.612Z,9.18
2023-04-09T08:53:56.376Z,17.17
2023-04-09T08:56:24.612Z,16.58
2023-04-09T08:58:55.139Z,10.82
2023-04-09T09:01:24.589Z,12.47
2023-04-09T09:03:55.699Z,24.38
2023-04-09T09:06:27.029Z,12.88
2023-04-09T09:09:10.388Z,11.48
2023-04-09T09:11:40.172Z,12.93
2023-04-09T09:14:12.264Z,11.45
2023-04-09T09:17:06.616Z,11.50
2023-04-09T09:19:34.660Z,11.23
2023-04-09T09:22:05.173Z,12.40
2023-04-09T09:24:33.992Z,11.27
2023-04-09T09:27:01.904Z,13.25
2023-04-09T09:29:31.227Z,12.23
2023-04-09T09:31:58.998Z,14.60
2023-04-09T09:34:28.947Z,11.85
2023-04-09T09:36:57.541Z,11.98
2023-04-09T09:39:43.431Z,12.77
2023-04-09T09:42:11.320Z,14.20
2023-04-09T09:44:41.835Z,12.43
2023-04-09T09:47:12.246Z,15.98
2023-04-09T09:49:40.229Z,14.50
2023-04-09T09:52:10.228Z,13.68
2023-04-09T09:54:41.542Z,15.40
2023-04-09T09:57:10.527Z,12.27
2023-04-09T09:59:48.021Z,13.73
2023-04-09T10:02:20.877Z,11.68
2023-04-09T10:04:50.358Z,11.75
2023-04-09T10:07:21.875Z,14.52
2023-04-09T10:09:53.095Z,16.35
2023-04-09T10:12:22.233Z,10.52
2023-04-09T10:14:51.745Z,13.65
2023-04-09T10:17:20.162Z,21.35
2023-04-09T10:19:56.060Z,16.77
2023-04-09T10:22:27.176Z,13.57
2023-04-09T10:24:55.376Z,11.90
2023-04-09T10:27:23.563Z,39.70
2023-04-09T10:29:52.694Z,216.68
2023-04-09T10:32:22.838Z,21.70
2023-04-09T10:35:10.501Z,18.40
2023-04-09T10:37:48.667Z,14.95
2023-04-09T10:40:21.614Z,10.70
2023-04-09T10:42:50.354Z,11.75
2023-04-09T10:45:24.842Z,8.45
2023-04-09T10:47:54.080Z,20.52
2023-04-09T10:50:26.209Z,8.82
2023-04-09T10:52:56.708Z,12.15
2023-04-09T10:55:36.202Z,9.75
2023-04-09T10:58:13.270Z,11.85
2023-04-09T11:00:48.150Z,16.05
2023-04-09T11:03:23.356Z,9.57
2023-04-09T11:06:02.440Z,13.50
2023-04-09T11:08:31.797Z,9.75
2023-04-09T11:11:02.303Z,11.35
2023-04-09T11:13:31.767Z,11.65
2023-04-09T11:16:06.866Z,9.57
2023-04-09T11:18:46.827Z,9.10
2023-04-09T11:21:20.015Z,12.68
2023-04-09T11:23:52.207Z,11.15
2023-04-09T11:26:34.995Z,11.70
2023-04-09T11:29:07.274Z,8.23
2023-04-09T11:31:44.964Z,9.05
2023-04-09T11:34:32.540Z,7.70
2023-04-09T11:37:02.070Z,6.03
2023-04-09T11:39:31.074Z,9.30
2023-04-09T11:41:59.895Z,16.33
2023-04-09T11:44:45.365Z,8.57
2023-04-09T11:47:32.082Z,8.25
2023-04-09T11:50:03.124Z,8.52
2023-04-09T11:52:37.346Z,8.63
2023-04-09T11:55:11.482Z,8.60
2023-04-09T11:57:47.238Z,10.32
2023-04-09T12:00:17.361Z,8.07
2023-04-09T12:03:03.129Z,11.27
2023-04-09T12:05:50.583Z,7.35
2023-04-09T12:08:23.791Z,10.60
2023-04-09T12:11:08.607Z,9.57
2023-04-09T12:13:43.723Z,9.93
2023-04-09T12:16:15.128Z,12.00
2023-04-09T12:19:03.343Z,10.07
2023-04-09T12:21:46.183Z,12.85
2023-04-09T12:24:16.102Z,10.25
2023-04-09T12:26:48.521Z,9.25
2023-04-09T12:29:19.100Z,21.70
2023-04-09T12:31:51.108Z,18.63
2023-04-09T12:34:21.624Z,13.10
2023-04-09T12:36:55.364Z,13.82
2023-04-09T12:39:24.125Z,13.65
2023-04-09T12:44:23.123Z,10.82
2023-04-09T12:46:54.783Z,8.45
2023-04-09T12:49:24.073Z,10.23
2023-04-09T12:51:51.626Z,11.63
2023-04-09T12:54:21.764Z,33.88
2023-04-09T12:56:50.811Z,8.68
2023-04-09T12:59:22.695Z,7.85
2023-04-09T13:01:51.158Z,10.90
2023-04-09T13:04:18.789Z,7.63
2023-04-09T13:06:48.460Z,7.25
2023-04-09T13:09:16.535Z,7.45
2023-04-09T13:11:44.417Z,7.60
2023-04-09T13:14:14.341Z,9.25
2023-04-09T13:16:42.423Z,10.70
2023-04-09T13:19:16.221Z,10.60
2023-04-09T13:21:46.237Z,11.07
2023-04-09T13:24:16.703Z,10.95
2023-04-09T13:26:44.817Z,10.68
2023-04-09T13:29:12.537Z,13.35
2023-04-09T13:31:43.276Z,12.10
2023-04-09T13:34:18.501Z,9.68
2023-04-09T13:36:50.697Z,12.32
2023-04-09T13:39:20.783Z,10.27
2023-04-09T13:41:51.040Z,11.70
2023-04-09T13:44:19.131Z,19.30
2023-04-09T13:46:47.577Z,16.27
2023-04-09T13:49:16.072Z,14.95
2023-04-09T13:51:44.510Z,10.73
2023-04-09T13:54:12.972Z,13.07
2023-04-09T13:56:42.343Z,12.27
2023-04-09T13:59:12.609Z,10.00
2023-04-09T14:01:40.303Z,13.43
2023-04-09T14:04:08.363Z,14.20
2023-04-09T14:06:37.584Z,13.43
2023-04-09T14:09:05.487Z,13.52
2023-04-09T14:11:33.923Z,10.77
2023-04-09T14:14:04.870Z,9.25
2023-04-09T14:16:32.574Z,9.45
2023-04-09T14:19:03.248Z,16.25
2023-04-09T14:21:33.954Z,20.08
2023-04-09T14:24:01.685Z,20.88
2023-04-09T14:26:29.475Z,19.88
2023-04-09T14:28:57.325Z,51.25
2023-04-09T14:31:34.548Z,51.58
2023-04-09T14:34:08.220Z,25.13
2023-04-09T14:36:38.504Z,36.30
2023-04-09T14:39:10.030Z,28.63
2023-04-09T14:41:46.505Z,24.08
2023-04-09T14:44:15.828Z,24.92
2023-04-09T14:46:45.595Z,23.30
2023-04-09T14:49:15.945Z,19.38
2023-04-09T14:51:45.115Z,33.03
2023-04-09T14:54:14.262Z,23.05
2023-04-09T14:56:46.751Z,25.38
2023-04-09T14:59:16.347Z,56.30
2023-04-09T15:01:53.327Z,23.42
2023-04-09T15:04:33.602Z,21.42
2023-04-09T15:07:02.153Z,22.27
2023-04-09T15:09:30.052Z,17.73
2023-04-09T15:11:58.080Z,13.90
2023-04-09T15:14:34.038Z,15.57
2023-04-09T15:17:12.323Z,14.63
2023-04-09T15:19:41.546Z,13.05
2023-04-09T15:22:16.570Z,17.25
2023-04-09T15:24:58.119Z,14.98
2023-04-09T15:27:26.020Z,14.10
2023-04-09T15:29:54.686Z,14.85
2023-04-09T15:32:25.305Z,22.70
2023-04-09T15:34:56.566Z,19.98
2023-04-09T15:37:30.437Z,25.73
2023-04-09T15:39:58.135Z,29.60
2023-04-09T15:42:26.125Z,28.35
2023-04-09T15:44:55.382Z,39.63
2023-04-09T15:47:25.483Z,26.38
2023-04-09T15:49:59.519Z,31.48
2023-04-09T15:52:27.534Z,21.88
2023-04-09T15:54:56.322Z,35.22
2023-04-09T15:57:27.118Z,35.85
2023-04-09T15:59:54.988Z,23.42
2023-04-09T16:02:26.313Z,38.17
2023-04-09T16:04:57.076Z,47.53
2023-04-09T16:07:24.806Z,43.45
2023-04-09T16:09:54.848Z,66.63
2023-04-09T16:12:26.370Z,50.15
2023-04-09T16:15:08.441Z,37.47
2023-04-09T16:17:40.673Z,40.65
2023-04-09T16:20:09.570Z,37.70
2023-04-09T16:22:41.030Z,23.55
2023-04-09T16:25:10.006Z,14.73
2023-04-09T16:27:43.682Z,15.02
2023-04-09T16:30:12.282Z,13.68
2023-04-09T16:32:48.688Z,23.08
2023-04-09T16:35:21.301Z,28.40
2023-04-09T16:38:02.712Z,28.45
2023-04-09T16:40:46.475Z,42.28
2023-04-09T16:43:18.384Z,43.30
2023-04-09T16:45:49.726Z,43.95
2023-04-09T16:48:37.502Z,66.22
2023-04-09T16:51:13.082Z,39.80
2023-04-09T16:53:45.425Z,28.90
2023-04-09T16:56:20.975Z,24.92
2023-04-09T16:58:48.924Z,30.50
2023-04-09T17:01:20.947Z,32.95
2023-04-09T17:03:51.329Z,28.55
2023-04-09T17:06:19.441Z,36.08
2023-04-09T17:08:51.226Z,33.70
2023-04-09T17:11:20.249Z,33.35
2023-04-09T17:13:55.100Z,52.53
2023-04-09T17:16:25.610Z,48.40
2023-04-09T17:18:55.104Z,50.65
2023-04-09T17:21:27.547Z,66.25
2023-04-09T17:24:04.888Z,66.53
2023-04-09T17:26:34.179Z,63.95
2023-04-09T17:29:01.917Z,81.57
2023-04-09T17:31:31.932Z,90.55
2023-04-09T17:34:21.069Z,98.72
2023-04-09T17:36:49.465Z,89.82
2023-04-09T17:39:19.094Z,94.15
2023-04-09T17:41:47.953Z,117.32
2023-04-09T17:44:23.972Z,167.55
2023-04-09T17:46:55.224Z,135.48
2023-04-09T17:49:25.469Z,119.63
2023-04-09T17:51:56.753Z,96.95
2023-04-09T17:54:32.886Z,84.60
2023-04-09T17:57:10.555Z,75.55
2023-04-09T17:59:48.384Z,94.95
2023-04-09T18:02:18.202Z,77.90
2023-04-09T18:04:53.738Z,77.55
2023-04-09T18:07:21.702Z,75.07
2023-04-09T18:09:52.230Z,70.20
2023-04-09T18:12:20.788Z,74.97
2023-04-09T18:14:59.873Z,78.72
2023-04-09T18:17:27.629Z,75.25
2023-04-09T18:19:57.144Z,75.88
2023-04-09T18:22:25.353Z,81.25
2023-04-09T18:24:53.232Z,70.10
2023-04-09T18:27:21.199Z,73.85
2023-04-09T18:29:50.702Z,77.15
2023-04-09T18:32:18.613Z,80.10
2023-04-09T18:34:47.260Z,83.20
2023-04-09T18:37:17.574Z,83.85
2023-04-09T18:39:46.327Z,73.03
2023-04-09T18:42:19.395Z,77.28
2023-04-09T18:44:50.328Z,70.63
2023-04-09T18:47:18.718Z,68.95
2023-04-09T18:49:46.887Z,62.03
2023-04-09T18:52:18.327Z,73.57
2023-04-09T18:54:53.065Z,186.15
2023-04-09T18:57:20.710Z,169.95
2023-04-09T18:59:49.420Z,77.28
2023-04-09T19:02:17.282Z,75.55
2023-04-09T19:04:47.500Z,87.15
2023-04-09T19:07:15.538Z,92.40
2023-04-09T19:09:46.138Z,95.50
2023-04-09T19:12:15.248Z,144.48
2023-04-09T19:14:43.273Z,110.35
2023-04-09T19:17:13.269Z,93.18
2023-04-09T19:19:40.827Z,88.88
2023-04-09T19:22:09.736Z,78.47
2023-04-09T19:24:37.616Z,80.10
2023-04-09T19:27:09.768Z,79.13
2023-04-09T19:29:38.035Z,80.70
2023-04-09T19:32:12.174Z,94.20
2023-04-09T19:34:42.170Z,90.20
2023-04-09T19:37:09.754Z,73.93
2023-04-09T19:39:37.380Z,53.50
2023-04-09T19:42:06.383Z,49.60
2023-04-09T19:44:40.621Z,50.72
2023-04-09T19:49:38.677Z,40.45
2023-04-09T19:52:06.820Z,68.55
2023-04-09T19:54:38.629Z,400.27
2023-04-09T19:57:14.623Z,235.98
2023-04-09T19:59:44.256Z,107.68
2023-04-09T20:02:18.781Z,101.82
2023-04-09T20:07:14.214Z,47.17
2023-04-09T20:09:41.759Z,45.92
2023-04-09T20:12:11.324Z,46.55
2023-04-09T20:14:39.063Z,37.08
2023-04-09T20:17:12.557Z,33.28
2023-04-09T20:19:41.410Z,35.00
2023-04-09T20:22:09.203Z,50.05
2023-04-09T20:24:43.357Z,106.15
2023-04-09T20:27:10.917Z,153.02
2023-04-09T20:29:38.496Z,95.75
2023-04-09T20:32:13.510Z,73.10
2023-04-09T20:34:41.984Z,62.83
2023-04-09T20:37:09.883Z,65.13
2023-04-09T20:39:39.026Z,75.20
2023-04-09T20:42:06.781Z,60.30
2023-04-09T20:44:34.373Z,105.65
2023-04-09T20:47:02.222Z,109.20
2023-04-09T20:49:32.092Z,93.43
2023-04-09T20:52:08.140Z,79.15
2023-04-09T20:54:37.963Z,59.40
2023-04-09T20:57:05.594Z,46.85
2023-04-09T20:59:34.853Z,40.97
2023-04-09T21:02:03.644Z,49.60
2023-04-09T21:04:32.929Z,36.15
2023-04-09T21:07:01.675Z,43.83
2023-04-09T21:09:29.486Z,45.53
2023-04-09T21:12:02.981Z,39.90
2023-04-09T21:14:31.840Z,38.28
2023-04-09T21:17:00.081Z,35.67
2023-04-09T21:19:28.029Z,32.25
2023-04-09T21:22:00.315Z,39.30
2023-04-09T21:24:28.123Z,40.50
2023-04-09T21:26:55.690Z,55.03
2023-04-09T21:29:23.641Z,78.30
2023-04-09T21:31:51.710Z,71.07
2023-04-09T21:34:19.259Z,65.40
2023-04-09T21:36:46.943Z,69.10
2023-04-09T21:39:16.044Z,67.55
2023-04-09T21:41:43.710Z,44.80
2023-04-09T21:44:11.990Z,52.85
2023-04-09T21:46:40.126Z,125.63
2023-04-09T21:49:07.817Z,90.90
2023-04-09T21:51:35.893Z,94.82
2023-04-09T21:54:04.306Z,70.82
2023-04-09T21:56:34.423Z,60.25
2023-04-09T21:59:05.100Z,98.57
2023-04-09T22:01:32.744Z,141.15
2023-04-09T22:04:05.291Z,61.92
2023-04-09T22:06:34.800Z,45.95
2023-04-09T22:09:03.391Z,45.50
2023-04-09T22:11:32.906Z,39.50
2023-04-09T22:14:00.917Z,45.28
2023-04-09T22:16:28.685Z,49.88
2023-04-09T22:18:56.767Z,61.47
2023-04-09T22:21:29.930Z,44.13
2023-04-09T22:23:59.180Z,47.88
2023-04-09T22:26:26.934Z,54.60
2023-04-09T22:28:56.572Z,47.08
2023-04-09T22:31:26.527Z,43.05
2023-04-09T22:33:54.377Z,48.55
2023-04-09T22:36:23.225Z,46.45
2023-04-09T22:38:51.178Z,51.28
2023-04-09T22:41:19.084Z,69.47
2023-04-09T22:43:46.799Z,58.53
2023-04-09T22:46:16.152Z,54.10
2023-04-09T22:48:45.112Z,41.75
2023-04-09T22:51:13.098Z,43.25
2023-04-09T22:53:42.528Z,43.10
2023-04-09T22:56:10.352Z,44.40
2023-04-09T22:58:38.364Z,46.10
2023-04-09T23:01:06.582Z,51.80
2023-04-09T23:03:35.861Z,58.15
2023-04-09T23:06:04.137Z,51.95
2023-04-09T23:08:31.729Z,65.75
2023-04-09T23:11:00.238Z,61.22
2023-04-09T23:13:33.080Z,54.17
2023-04-09T23:16:03.898Z,55.72
2023-04-09T23:21:05.004Z,46.63
2023-04-09T23:23:32.913Z,38.67
2023-04-09T23:26:01.070Z,41.15
2023-04-09T23:28:29.349Z,40.67
2023-04-09T23:30:57.102Z,39.50
2023-04-09T23:33:25.271Z,43.60
2023-04-09T23:35:53.039Z,39.38
2023-04-09T23:38:22.465Z,45.80
2023-04-09T23:40:50.655Z,45.05
2023-04-09T23:43:18.356Z,50.88
2023-04-09T23:45:47.874Z,50.00
2023-04-09T23:48:15.541Z,45.10
2023-04-09T23:50:45.452Z,112.28
2023-04-09T23:53:13.197Z,68.88
2023-04-09T23:55:42.149Z,39.92
2023-04-09T23:58:11.602Z,50.07
